Startpagina
METAR-TAF:

METAR-TAF

Vliegvelden :

Koeweit, Koeweit

breedte: 29-13N, lengte: 047-59E, hoogte: 55 m

Actueel weer

Dit bericht is 18 minuten geleden gemaakt, om 12:00 UTC
Wind 3 kt uit het noordnoordwesten
Temperatuur 23°C
Vochtigheid 19%
Druk 1020 hPa
Zicht 10 km of meer
geen wolken onder 1500 m en geen cumulonimbus

METAR: OKBK 221200Z 33003KT CAVOK 23/M02 Q1020 NOSIG

Tijdstip: 15:18 (12:18 UTC)

Verwachting

Dit bericht is 1 uur en het 33 minuten geleden gemaakt, om 10:45 UTC
Verwachting geldig van 22 om 12 UTC tot 23 om 18 UTC
Wind 3 kt uit variabele richting
Zicht: 7000 m

TAF: OKBK 221045Z 2212/2318 VRB03KT 7000 NSC

Waarnemingen en weersverwachtingen van meer dan 4000 vliegvelden (METAR en TAF).

De beschikbare stations zijn de gele en rode punten op de kaart.

Ga met uw muis naar het station om de naam te zien.

Klik dan om waarnemingen en weersverwachtingen te zien.

kaart wijzigen: klik op de groene knoppen met een zwart kruis om in te zoomen, op de groene knop met een streepje om uit te zoomen of op de groene pijlen voor aangrenzende kaarten.


METAR-TAF: